Ramona, South Dakota
Current Conditions -  °F | °C
As of 4:15 AM on Thursday 23 Oct 2014 (Local Time) from KMDS Reporting Station
Moderate Fog Moderate Fog  
Wind Chill: 42°   Ceiling: 500
Heat Index: 45°   Visibility: 0.5mi
Dew Point: 45°   Wind: 5mph
Humidity: 100%   Direction: 230°SW
Pressure: 30"   Gusts: NA
Location:  44.12°N, 97.22°W
Report Text: KMDS 230915Z AUTO 23004KT 1/2SM FG VV005 07/07 A3000 RMK AO2
Loading
Personal Weather Stations






























Interactive Weather Map
Tropical Storm Tracking
New forecast layout! Learn more

10-Day Weather Forecast

Advertisements
Track Severe Weather on mobile